Time;durP1;ratioP1;P1;durP2;ratioP2;P2;SDS_P1;SDS_P2;PMS_P1;PMS_P2;Temp;Humidity;BMP_temperature;BMP_pressure;BME280_temperature;BME280_humidity;BME280_pressure;Samples;Min_cycle;Max_cycle;Signal;HPM_P1;HPM_P2
2022/04/06 00:01:08;;;;;;;;;;;;;;;7.49;78.07;97411.75;2600481;28;19994;-79
2022/04/06 00:02:23;;;;;;;;;;;;;;;7.48;77.81;97407.47;2602499;28;20019;-81
2022/04/06 00:03:40;;;;;;;;;;;;;;;7.52;77.90;97408.22;2602265;28;19924;-77
2022/04/06 00:04:55;;;;;;;;;;;;;;;7.53;77.87;97403.84;2602525;28;19921;-78
2022/04/06 00:06:11;;;;;;;;;;;;;;;7.56;77.85;97403.78;2602792;28;20256;-78
2022/04/06 00:07:27;;;;;;;;;;;;;;;7.56;77.94;97403.78;2604259;28;20066;-78
2022/04/06 00:08:42;;;;;;;;;;;;;;;7.60;77.83;97403.59;2601417;28;19924;-80
2022/04/06 00:09:58;;;;;;;;;;;;;;;7.60;77.83;97419.22;2601984;28;19931;-78
2022/04/06 00:11:13;;;;;;;;;;;;;;;7.62;77.40;97417.44;2602832;28;20368;-78
2022/04/06 00:12:29;;;;;;;;;;;;;;;7.65;77.67;97418.25;2601931;28;19925;-79
2022/04/06 00:13:44;;;;;;;;;;;;;;;7.65;77.91;97421.69;2601590;28;20040;-78
2022/04/06 00:15:00;;;;;;;;;;;;;;;7.63;77.72;97413.06;2602851;28;19931;-79
2022/04/06 00:16:16;;;;;;;;;;;;;;;7.65;77.53;97407.81;2601636;28;19925;-79
2022/04/06 00:17:31;;;;;;;;;;;;;;;7.66;77.65;97417.34;2602705;28;19927;-78
2022/04/06 00:18:47;;;;;;;;;;;;;;;7.66;77.56;97415.56;2602627;28;19987;-78
2022/04/06 00:20:03;;;;;;;;;;;;;;;7.70;77.47;97404.16;2601437;28;19975;-78
2022/04/06 00:21:19;;;;;;;;;;;;;;;7.70;77.33;97405.91;2604155;28;20587;-78
2022/04/06 00:22:34;;;;;;;;;;;;;;;7.72;77.19;97412.78;2602058;28;19932;-78
2022/04/06 00:23:50;;;;;;;;;;;;;;;7.76;77.42;97408.31;2601176;28;19925;-78
2022/04/06 00:25:05;;;;;;;;;;;;;;;7.81;77.00;97414.22;2601143;28;20434;-78
2022/04/06 00:26:21;;;;;;;;;;;;;;;7.82;76.99;97415.91;2601628;28;19929;-79
2022/04/06 00:27:37;;;;;;;;;;;;;;;7.78;77.14;97414.34;2603967;28;19925;-78
2022/04/06 00:28:52;;;;;;;;;;;;;;;7.79;76.96;97413.44;2603982;28;19921;-78
2022/04/06 00:30:08;;;;;;;;;;;;;;;7.82;76.84;97410.72;2602573;28;19924;-78
2022/04/06 00:31:23;;;;;;;;;;;;;;;7.83;77.05;97406.38;2602613;28;20346;-78
2022/04/06 00:32:39;;;;;;;;;;;;;;;7.86;76.86;97403.66;2601605;28;20315;-79
2022/04/06 00:33:55;;;;;;;;;;;;;;;7.86;76.68;97407.09;2601781;28;19928;-79
2022/04/06 00:35:29;;;;;;;;;;;;;;;7.83;76.66;97390.72;2602464;28;19928;-78
2022/04/06 00:36:44;;;;;;;;;;;;;;;7.87;76.69;97402.75;2603485;28;20401;-80
2022/04/06 00:38:04;;;;;;;;;;;;;;;7.87;76.75;97402.75;2601379;28;19925;-78
2022/04/06 00:39:20;;;;;;;;;;;;;;;7.87;76.56;97400.13;2602420;28;20384;-78
2022/04/06 00:40:36;;;;;;;;;;;;;;;7.92;76.48;97408.63;2601643;28;19947;-78
2022/04/06 00:41:51;;;;;;;;;;;;;;;7.91;76.54;97404.34;2603086;28;19932;-78
2022/04/06 00:43:10;;;;;;;;;;;;;;;7.95;76.55;97412.91;2603246;28;19921;-78
2022/04/06 00:44:28;;;;;;;;;;;;;;;7.97;76.48;97396.31;2603476;28;20367;-78
2022/04/06 00:45:43;;;;;;;;;;;;;;;7.97;76.35;97400.66;2601015;28;19925;-78
2022/04/06 00:46:59;;;;;;;;;;;;;;;7.96;76.17;97410.25;2601294;28;19925;-79
2022/04/06 00:48:14;;;;;;;;;;;;;;;7.96;76.45;97407.66;2603289;28;19956;-78
2022/04/06 00:49:30;;;;;;;;;;;;;;;7.95;76.52;97407.69;2602909;28;19921;-77
2022/04/06 00:50:46;;;;;;;;;;;;;;;7.95;76.62;97410.31;2603425;28;20491;-77
2022/04/06 00:52:04;;;;;;;;;;;;;;;7.92;76.79;97408.63;2602829;28;19925;-77
2022/04/06 00:53:19;;;;;;;;;;;;;;;7.97;76.66;97417.16;2604365;28;19932;-77
2022/04/06 00:54:37;;;;;;;;;;;;;;;7.95;76.77;97405.91;2602851;28;19931;-77
2022/04/06 00:55:52;;;;;;;;;;;;;;;7.96;76.57;97402.44;2602230;28;20015;-77
2022/04/06 00:57:08;;;;;;;;;;;;;;;8.00;76.61;97405.78;2603036;28;19921;-78
2022/04/06 00:58:24;;;;;;;;;;;;;;;8.02;76.47;97404.81;2602552;28;19932;-78
2022/04/06 00:59:40;;;;;;;;;;;;;;;8.01;76.65;97416.16;2603093;28;19939;-77
2022/04/06 01:00:56;;;;;;;;;;;;;;;8.02;76.55;97417.84;2601272;28;19925;-78
2022/04/06 01:02:11;;;;;;;;;;;;;;;8.05;76.66;97417.75;2601327;28;19924;-78
2022/04/06 01:03:27;;;;;;;;;;;;;;;8.05;76.63;97406.47;2600977;28;19925;-78
2022/04/06 01:04:43;;;;;;;;;;;;;;;8.07;76.71;97425.53;2602265;28;19974;-77
2022/04/06 01:05:59;;;;;;;;;;;;;;;8.04;76.72;97408.22;2604055;28;20442;-77
2022/04/06 01:07:14;;;;;;;;;;;;;;;8.06;76.84;97421.22;2603912;28;20334;-79
2022/04/06 01:08:30;;;;;;;;;;;;;;;8.08;76.75;97418.53;2601919;28;19975;-77
2022/04/06 01:09:46;;;;;;;;;;;;;;;8.06;76.55;97418.59;2602997;28;20280;-77
2022/04/06 01:11:01;;;;;;;;;;;;;;;8.09;76.67;97407.19;2603931;28;19924;-78
2022/04/06 01:12:18;;;;;;;;;;;;;;;8.10;76.74;97420.19;2602935;28;19921;-78
2022/04/06 01:13:34;;;;;;;;;;;;;;;8.14;76.77;97407.91;2603887;28;19929;-78
2022/04/06 01:14:50;;;;;;;;;;;;;;;8.12;76.64;97407.13;2602101;28;19928;-77
2022/04/06 01:16:05;;;;;;;;;;;;;;;8.11;76.90;97411.47;2600987;28;19944;-77
2022/04/06 01:17:20;;;;;;;;;;;;;;;8.14;76.82;97400.94;2603948;28;20098;-83
2022/04/06 01:18:36;;;;;;;;;;;;;;;8.15;76.61;97407.84;2603857;28;19978;-77
2022/04/06 01:19:53;;;;;;;;;;;;;;;8.13;76.53;97395.78;2603473;28;19924;-78
2022/04/06 01:21:11;;;;;;;;;;;;;;;8.11;76.70;97403.66;2604284;28;19931;-77
2022/04/06 01:22:27;;;;;;;;;;;;;;;8.14;76.51;97379.25;2601054;28;19924;-77
2022/04/06 01:23:43;;;;;;;;;;;;;;;8.18;76.41;97389.50;2601161;28;19924;-78
2022/04/06 01:24:58;;;;;;;;;;;;;;;8.19;76.44;97385.13;2603371;28;20273;-78
2022/04/06 01:26:14;;;;;;;;;;;;;;;8.23;76.20;97391.09;2601102;28;19929;-77
2022/04/06 01:27:29;;;;;;;;;;;;;;;8.25;76.22;97391.88;2600846;28;20268;-77
2022/04/06 01:28:45;;;;;;;;;;;;;;;8.19;76.32;97391.22;2603126;28;19987;-78
2022/04/06 01:30:00;;;;;;;;;;;;;;;8.21;76.03;97404.16;2602460;28;20024;-77
2022/04/06 01:31:16;;;;;;;;;;;;;;;8.19;76.32;97403.38;2601209;28;19929;-78
2022/04/06 01:32:32;;;;;;;;;;;;;;;8.19;76.45;97406.00;2600880;28;20410;-77
2022/04/06 01:33:48;;;;;;;;;;;;;;;8.19;76.61;97406.00;2602278;28;20123;-77
2022/04/06 01:35:04;;;;;;;;;;;;;;;8.16;76.58;97406.09;2601466;28;20023;-77
2022/04/06 01:36:19;;;;;;;;;;;;;;;8.19;76.60;97403.38;2602775;28;19921;-78
2022/04/06 01:37:35;;;;;;;;;;;;;;;8.22;76.51;97400.66;2600890;28;19990;-80
2022/04/06 01:38:51;;;;;;;;;;;;;;;8.22;76.42;97405.88;2603481;28;20330;-78
2022/04/06 01:40:07;;;;;;;;;;;;;;;8.22;76.54;97405.03;2601232;28;19964;-77
2022/04/06 01:41:22;;;;;;;;;;;;;;;8.20;76.45;97402.47;2600853;28;19921;-78
2022/04/06 01:42:37;;;;;;;;;;;;;;;8.23;76.64;97402.34;2602419;28;20252;-77
2022/04/06 01:43:53;;;;;;;;;;;;;;;8.23;76.59;97398.91;2602520;28;19925;-78
2022/04/06 01:45:08;;;;;;;;;;;;;;;8.19;76.87;97400.78;2603925;28;19932;-78
2022/04/06 01:46:24;;;;;;;;;;;;;;;8.16;76.77;97403.50;2603819;28;19928;-77
2022/04/06 01:47:39;;;;;;;;;;;;;;;8.26;76.76;97406.63;2600636;28;19924;-79
2022/04/06 01:52:18;;;;;;;;;;;;;;;8.22;76.92;97405.88;2600740;28;19931;-78
2022/04/06 01:53:33;;;;;;;;;;;;;;;8.19;76.88;97401.63;2602382;28;19936;-78
2022/04/06 01:54:50;;;;;;;;;;;;;;;8.23;76.87;97407.56;2602875;28;19943;-77
2022/04/06 01:56:05;;;;;;;;;;;;;;;8.21;77.00;97409.38;2600360;28;19929;-77
2022/04/06 01:57:21;;;;;;;;;;;;;;;8.20;76.87;97411.16;2600568;28;19925;-77
2022/04/06 01:58:36;;;;;;;;;;;;;;;8.20;77.02;97412.91;2601588;28;19928;-78
2022/04/06 01:59:52;;;;;;;;;;;;;;;8.20;76.80;97410.28;2603395;28;19932;-78
2022/04/06 02:01:07;;;;;;;;;;;;;;;8.19;77.00;97413.81;2600753;28;20384;-78
2022/04/06 02:02:24;;;;;;;;;;;;;;;8.24;76.95;97411.03;2600628;28;20327;-77
2022/04/06 02:03:39;;;;;;;;;;;;;;;8.22;76.81;97416.31;2601403;28;19924;-78
2022/04/06 02:04:55;;;;;;;;;;;;;;;8.20;76.92;97410.28;2601461;28;19986;-78
2022/04/06 02:06:10;;;;;;;;;;;;;;;8.18;76.89;97415.59;2601269;28;20384;-77
2022/04/06 02:07:26;;;;;;;;;;;;;;;8.19;76.93;97413.81;2601637;28;19931;-78
2022/04/06 02:08:41;;;;;;;;;;;;;;;8.18;76.88;97409.50;2601430;28;20380;-78
2022/04/06 02:09:59;;;;;;;;;;;;;;;8.22;76.75;97410.25;2601924;28;19998;-78
2022/04/06 02:11:16;;;;;;;;;;;;;;;8.19;76.84;97406.84;2600735;28;19965;-78
2022/04/06 02:12:31;;;;;;;;;;;;;;;8.20;76.68;97407.69;2602644;28;19921;-77
2022/04/06 02:13:47;;;;;;;;;;;;;;;8.20;76.86;97400.72;2611955;28;19928;-78
2022/04/06 02:15:03;;;;;;;;;;;;;;;8.17;76.63;97398.25;2607887;28;19925;-78
2022/04/06 02:16:18;;;;;;;;;;;;;;;8.20;76.50;97402.47;2601504;28;19924;-78
2022/04/06 02:17:34;;;;;;;;;;;;;;;8.20;76.62;97408.56;2602049;28;20090;-77
2022/04/06 02:18:49;;;;;;;;;;;;;;;8.23;76.55;97412.78;2600828;28;19925;-79
2022/04/06 02:20:05;;;;;;;;;;;;;;;8.20;76.50;97402.47;2601235;28;20351;-77
2022/04/06 02:21:21;;;;;;;;;;;;;;;8.23;76.36;97415.41;2600325;28;19929;-78
2022/04/06 02:22:36;;;;;;;;;;;;;;;8.21;76.22;97409.38;2600833;28;20360;-78
2022/04/06 02:23:52;;;;;;;;;;;;;;;8.20;76.69;97420.72;2600826;28;19921;-78
2022/04/06 02:25:08;;;;;;;;;;;;;;;8.22;76.20;97416.31;2600413;28;19967;-78
2022/04/06 02:26:23;;;;;;;;;;;;;;;8.22;76.50;97411.09;2601231;28;19931;-78
2022/04/06 02:27:53;;;;;;;;;;;;;;;8.25;76.20;97411.00;2601954;28;19925;-78
2022/04/06 02:29:08;;;;;;;;;;;;;;;8.21;76.29;97409.38;2601475;28;19924;-77
2022/04/06 02:30:23;;;;;;;;;;;;;;;8.20;76.52;97402.47;2602505;28;19925;-77
2022/04/06 02:31:39;;;;;;;;;;;;;;;8.19;76.45;97398.16;2601341;28;20438;-78
2022/04/06 02:32:54;;;;;;;;;;;;;;;8.20;76.38;97403.34;2602092;28;19940;-78
2022/04/06 02:34:10;;;;;;;;;;;;;;;8.19;76.48;97399.03;2601094;28;19921;-77
2022/04/06 02:35:25;;;;;;;;;;;;;;;8.22;76.27;97400.66;2602207;28;19928;-78
2022/04/06 02:36:41;;;;;;;;;;;;;;;8.19;76.31;97399.03;2601940;28;20016;-77
2022/04/06 02:37:57;;;;;;;;;;;;;;;8.22;76.31;97400.66;2602292;28;19920;-77
2022/04/06 02:39:12;;;;;;;;;;;;;;;8.21;76.29;97398.97;2601875;28;19971;-78
2022/04/06 02:40:27;;;;;;;;;;;;;;;8.18;76.11;97388.66;2602769;28;19925;-80
2022/04/06 02:41:43;;;;;;;;;;;;;;;8.21;76.31;97396.34;2603239;28;20352;-78
2022/04/06 02:42:58;;;;;;;;;;;;;;;8.19;76.24;97390.34;2601916;28;20549;-78
2022/04/06 02:44:15;;;;;;;;;;;;;;;8.25;75.96;97392.75;2600930;28;20300;-78
2022/04/06 02:45:30;;;;;;;;;;;;;;;8.22;75.97;97390.22;2601226;28;19925;-77
2022/04/06 02:46:47;;;;;;;;;;;;;;;8.20;76.22;97392.91;2603108;28;20005;-78
2022/04/06 02:48:03;;;;;;;;;;;;;;;8.20;76.11;97397.25;2600949;28;19932;-78
2022/04/06 02:49:18;;;;;;;;;;;;;;;8.23;75.80;97394.53;2600241;28;20096;-77
2022/04/06 02:50:34;;;;;;;;;;;;;;;8.27;75.60;97384.84;2600067;28;19925;-78
2022/04/06 02:51:50;;;;;;;;;;;;;;;8.30;75.54;97393.44;2600535;28;19936;-78
2022/04/06 02:53:05;;;;;;;;;;;;;;;8.24;75.56;97396.25;2600320;28;19931;-78
2022/04/06 02:54:20;;;;;;;;;;;;;;;8.28;75.44;97391.75;2600082;28;19932;-79
2022/04/06 02:55:36;;;;;;;;;;;;;;;8.27;75.40;97390.06;2602420;28;19925;-78
2022/04/06 02:56:51;;;;;;;;;;;;;;;8.26;75.30;97391.84;2602578;28;20011;-77
2022/04/06 02:58:07;;;;;;;;;;;;;;;8.27;75.27;97384.84;2602105;28;20296;-78
2022/04/06 02:59:22;;;;;;;;;;;;;;;8.28;75.19;97392.63;2600368;28;20283;-78
2022/04/06 03:00:38;;;;;;;;;;;;;;;8.30;75.14;97392.56;2601328;28;19960;-78
2022/04/06 03:01:53;;;;;;;;;;;;;;;8.29;75.27;97381.28;2600856;28;19925;-78
2022/04/06 03:03:09;;;;;;;;;;;;;;;8.30;75.12;97389.94;2602123;28;19925;-77
2022/04/06 03:04:24;;;;;;;;;;;;;;;8.27;75.46;97388.31;2602627;28;20379;-80
2022/04/06 03:05:39;;;;;;;;;;;;;;;8.29;75.38;97386.50;2600578;28;19928;-78
2022/04/06 03:06:55;;;;;;;;;;;;;;;8.27;75.43;97380.50;2601734;28;19933;-77
2022/04/06 03:08:10;;;;;;;;;;;;;;;8.30;75.31;97376.91;2600914;28;19924;-77
2022/04/06 03:09:26;;;;;;;;;;;;;;;8.29;75.44;97383.91;2600120;28;20032;-79
2022/04/06 03:10:41;;;;;;;;;;;;;;;8.31;75.31;97379.47;2601941;28;19932;-77
2022/04/06 03:11:59;;;;;;;;;;;;;;;8.29;75.43;97377.81;2601256;28;19925;-78
2022/04/06 03:13:14;;;;;;;;;;;;;;;8.25;75.70;97384.06;2602288;28;19921;-78
2022/04/06 03:14:30;;;;;;;;;;;;;;;8.29;75.65;97370.88;2600884;28;19924;-78
2022/04/06 03:15:45;;;;;;;;;;;;;;;8.29;75.49;97383.91;2602408;28;19935;-78
2022/04/06 03:17:00;;;;;;;;;;;;;;;8.30;75.55;97383.00;2600750;28;19924;-77
2022/04/06 03:18:16;;;;;;;;;;;;;;;8.29;75.75;97381.28;2600045;28;19999;-77
2022/04/06 03:19:31;;;;;;;;;;;;;;;8.28;75.73;97384.81;2602970;28;19960;-78
2022/04/06 03:20:47;;;;;;;;;;;;;;;8.27;75.77;97377.91;2602952;28;20031;-78
2022/04/06 03:22:03;;;;;;;;;;;;;;;8.26;75.88;97380.53;2600088;28;19928;-77
2022/04/06 03:23:18;;;;;;;;;;;;;;;8.26;75.99;97384.03;2600500;28;19990;-78
2022/04/06 03:24:34;;;;;;;;;;;;;;;8.25;76.02;97382.31;2600277;28;19932;-78
2022/04/06 03:25:49;;;;;;;;;;;;;;;8.25;76.02;97384.94;2600078;28;19925;-79
2022/04/06 03:27:05;;;;;;;;;;;;;;;8.26;75.95;97388.38;2601518;28;19933;-78
2022/04/06 03:28:20;;;;;;;;;;;;;;;8.25;76.12;97379.72;2602801;28;19928;-78
2022/04/06 03:29:35;;;;;;;;;;;;;;;8.23;76.14;97381.50;2602782;28;19971;-78
2022/04/06 03:30:51;;;;;;;;;;;;;;;8.23;76.07;97378.06;2603565;28;19966;-78
2022/04/06 03:32:07;;;;;;;;;;;;;;;8.22;76.33;97384.19;2601929;28;20146;-78
2022/04/06 03:33:22;;;;;;;;;;;;;;;8.23;76.30;97385.88;2603830;28;19979;-77
2022/04/06 03:34:38;;;;;;;;;;;;;;;8.23;76.34;97375.44;2599346;28;19924;-79
2022/04/06 03:35:54;;;;;;;;;;;;;;;8.23;76.33;97376.28;2599991;28;19936;-79
2022/04/06 03:37:09;;;;;;;;;;;;;;;8.24;76.39;97374.53;2600243;28;19956;-80
2022/04/06 03:38:25;;;;;;;;;;;;;;;8.25;76.39;97373.63;2604248;28;19979;-79
2022/04/06 03:39:40;;;;;;;;;;;;;;;8.24;76.32;97370.19;2604495;28;20415;-79
2022/04/06 03:40:56;;;;;;;;;;;;;;;8.26;76.44;97373.59;2601837;28;20359;-78
2022/04/06 03:42:11;;;;;;;;;;;;;;;8.24;76.49;97364.09;2602290;28;19925;-79
2022/04/06 03:43:26;;;;;;;;;;;;;;;8.22;76.41;97374.59;2602441;28;19921;-79
2022/04/06 03:44:43;;;;;;;;;;;;;;;8.20;76.59;97379.88;2603294;28;19925;-78
2022/04/06 03:45:59;;;;;;;;;;;;;;;8.23;76.49;97370.22;2603311;28;19928;-79
2022/04/06 03:47:14;;;;;;;;;;;;;;;8.24;76.51;97372.78;2613458;28;19978;-78
2022/04/06 03:48:30;;;;;;;;;;;;;;;8.22;76.65;97373.75;2608034;28;19935;-82
2022/04/06 03:49:45;;;;;;;;;;;;;;;8.21;76.62;97372.88;2603637;28;19935;-80
2022/04/06 03:51:00;;;;;;;;;;;;;;;8.20;76.58;97366.84;2601337;28;19979;-80
2022/04/06 03:52:16;;;;;;;;;;;;;;;8.23;76.56;97370.22;2602437;28;20379;-79
2022/04/06 03:53:31;;;;;;;;;;;;;;;8.20;76.72;97376.41;2602186;28;20372;-78
2022/04/06 03:54:47;;;;;;;;;;;;;;;8.23;76.59;97375.44;2601532;28;19924;-78
2022/04/06 03:56:02;;;;;;;;;;;;;;;8.25;76.42;97377.09;2601660;28;19925;-78
2022/04/06 03:57:18;;;;;;;;;;;;;;;8.22;76.50;97365.94;2602963;28;19925;-78
2022/04/06 03:58:33;;;;;;;;;;;;;;;8.27;76.51;97379.63;2613607;28;20386;-78
2022/04/06 03:59:48;;;;;;;;;;;;;;;8.26;76.40;97377.94;2610811;28;19920;-78
2022/04/06 04:01:06;;;;;;;;;;;;;;;8.26;76.53;97372.72;2604130;28;19920;-78
2022/04/06 04:02:21;;;;;;;;;;;;;;;8.21;76.39;97365.06;2603357;28;19940;-78
2022/04/06 04:03:37;;;;;;;;;;;;;;;8.19;76.55;97365.13;2604488;28;19925;-79
2022/04/06 04:04:52;;;;;;;;;;;;;;;8.19;76.39;97369.47;2604358;28;19931;-78
2022/04/06 04:06:08;;;;;;;;;;;;;;;8.22;76.65;97365.94;2605040;28;19975;-78
2022/04/06 04:07:23;;;;;;;;;;;;;;;8.24;76.51;97366.72;2603499;28;20276;-78
2022/04/06 04:08:39;;;;;;;;;;;;;;;8.23;76.43;97362.41;2604061;28;19932;-78
2022/04/06 04:09:54;;;;;;;;;;;;;;;8.27;76.46;97364.00;2602193;28;20003;-78
2022/04/06 04:11:10;;;;;;;;;;;;;;;8.29;76.25;97370.88;2604304;28;20071;-77
2022/04/06 04:12:26;;;;;;;;;;;;;;;8.26;76.38;97365.75;2603013;28;20333;-78
2022/04/06 04:13:42;;;;;;;;;;;;;;;8.23;76.57;97360.63;2602200;28;19928;-78
2022/04/06 04:14:57;;;;;;;;;;;;;;;8.25;76.47;97360.59;2604298;28;19931;-80
2022/04/06 04:16:13;;;;;;;;;;;;;;;8.25;76.57;97369.28;2603515;28;19925;-78
2022/04/06 04:17:28;;;;;;;;;;;;;;;8.23;76.37;97363.25;2604494;28;19931;-78
2022/04/06 04:18:43;;;;;;;;;;;;;;;8.27;76.12;97364.84;2602404;28;19925;-78
2022/04/06 04:19:59;;;;;;;;;;;;;;;8.27;76.32;97367.47;2604811;28;19931;-79
2022/04/06 04:21:32;;;;;;;;;;;;;;;8.27;76.46;97372.69;2603262;28;19925;-78
2022/04/06 04:22:48;;;;;;;;;;;;;;;8.29;76.29;97367.38;2602799;28;19970;-78
2022/04/06 04:24:05;;;;;;;;;;;;;;;8.30;76.11;97367.34;2603587;28;19925;-79
2022/04/06 04:25:20;;;;;;;;;;;;;;;8.27;76.30;97367.47;2604018;28;20406;-78
2022/04/06 04:26:38;;;;;;;;;;;;;;;8.30;76.16;97363.88;2602386;28;20250;-77
2022/04/06 04:27:54;;;;;;;;;;;;;;;8.27;76.19;97366.59;2601266;28;19967;-78
2022/04/06 04:29:09;;;;;;;;;;;;;;;8.28;76.21;97363.09;2603414;28;20019;-78
2022/04/06 04:30:24;;;;;;;;;;;;;;;8.30;76.10;97364.75;2600801;28;19932;-77
2022/04/06 04:31:40;;;;;;;;;;;;;;;8.30;75.96;97359.53;2603811;28;20007;-77
2022/04/06 04:32:55;;;;;;;;;;;;;;;8.30;75.97;97364.75;2602185;28;19990;-78
2022/04/06 04:34:11;;;;;;;;;;;;;;;8.31;76.01;97356.00;2607013;28;20394;-78
2022/04/06 04:35:26;;;;;;;;;;;;;;;8.31;75.79;97353.41;2605359;28;19929;-78
2022/04/06 04:36:42;;;;;;;;;;;;;;;8.29;76.12;97354.34;2601681;28;19932;-78
2022/04/06 04:37:58;;;;;;;;;;;;;;;8.27;76.15;97348.34;2604583;28;19925;-77
2022/04/06 04:39:13;;;;;;;;;;;;;;;8.29;75.94;97360.44;2602565;28;19982;-79
2022/04/06 04:40:29;;;;;;;;;;;;;;;8.30;75.93;97354.31;2603480;28;20354;-78
2022/04/06 04:41:45;;;;;;;;;;;;;;;8.29;75.91;97351.75;2602600;28;20032;-78
2022/04/06 04:43:01;;;;;;;;;;;;;;;8.30;75.89;97359.53;2604226;28;19920;-78
2022/04/06 04:44:16;;;;;;;;;;;;;;;8.29;75.75;97352.59;2601217;28;20386;-78
2022/04/06 04:45:32;;;;;;;;;;;;;;;8.33;75.69;97355.97;2604006;28;19925;-78
2022/04/06 04:46:47;;;;;;;;;;;;;;;8.33;75.58;97351.56;2601357;28;20309;-78
2022/04/06 04:48:03;;;;;;;;;;;;;;;8.34;75.50;97348.06;2600900;28;20269;-82
2022/04/06 04:49:19;;;;;;;;;;;;;;;8.33;75.51;97346.38;2602964;28;19947;-78
2022/04/06 04:50:34;;;;;;;;;;;;;;;8.31;75.09;97337.75;2601042;28;19925;-78
2022/04/06 04:51:50;;;;;;;;;;;;;;;8.34;75.49;97340.25;2603532;28;19931;-78
2022/04/06 04:53:05;;;;;;;;;;;;;;;8.36;75.33;97352.38;2602491;28;20333;-78
2022/04/06 04:54:24;;;;;;;;;;;;;;;8.40;75.13;97361.81;2603426;28;19924;-78
2022/04/06 04:55:41;;;;;;;;;;;;;;;8.38;75.21;97354.03;2601921;28;19972;-78
2022/04/06 04:56:56;;;;;;;;;;;;;;;8.36;75.20;97363.66;2604896;28;20051;-78
2022/04/06 04:58:12;;;;;;;;;;;;;;;8.36;75.34;97358.44;2602613;28;20385;-79
2022/04/06 04:59:27;;;;;;;;;;;;;;;8.38;75.22;97363.59;2604712;28;19925;-78
2022/04/06 05:00:42;;;;;;;;;;;;;;;8.41;74.96;97361.72;2602849;28;20306;-78
2022/04/06 05:01:58;;;;;;;;;;;;;;;8.40;75.12;97361.81;2603403;28;19925;-78
2022/04/06 05:03:13;;;;;;;;;;;;;;;8.40;75.11;97367.84;2600521;28;19924;-78
2022/04/06 05:04:29;;;;;;;;;;;;;;;8.42;75.16;97360.00;2602442;28;20031;-78
2022/04/06 05:05:48;;;;;;;;;;;;;;;8.43;75.09;97361.69;2601235;28;19924;-77
2022/04/06 05:07:04;;;;;;;;;;;;;;;8.40;75.06;97361.81;2602499;28;20015;-78
2022/04/06 05:08:23;;;;;;;;;;;;;;;8.43;75.06;97359.06;2601438;28;20299;-77
2022/04/06 05:09:38;;;;;;;;;;;;;;;8.43;74.86;97356.47;2602526;28;20287;-79
2022/04/06 05:10:53;;;;;;;;;;;;;;;8.45;74.70;97362.47;2600200;28;19956;-78
2022/04/06 05:12:09;;;;;;;;;;;;;;;8.47;74.65;97366.75;2600318;28;19932;-78
2022/04/06 05:13:25;;;;;;;;;;;;;;;8.46;74.67;97367.66;2602721;28;19929;-77
2022/04/06 05:14:40;;;;;;;;;;;;;;;8.52;74.40;97364.00;2602812;28;19925;-81
2022/04/06 05:15:55;;;;;;;;;;;;;;;8.52;74.41;97363.13;2606320;28;19935;-79
2022/04/06 05:17:11;;;;;;;;;;;;;;;8.53;74.21;97368.31;2605767;28;20290;-79
2022/04/06 05:18:28;;;;;;;;;;;;;;;8.52;74.29;97369.22;2602309;28;20273;-77
2022/04/06 05:19:43;;;;;;;;;;;;;;;8.56;74.30;97367.31;2603227;28;19974;-78
2022/04/06 05:20:59;;;;;;;;;;;;;;;8.54;74.26;97364.78;2602641;28;20331;-77
2022/04/06 05:22:14;;;;;;;;;;;;;;;8.54;74.37;97370.00;2601552;28;19924;-78
2022/04/06 05:23:30;;;;;;;;;;;;;;;8.53;74.41;97362.22;2603404;28;20324;-77
2022/04/06 05:24:45;;;;;;;;;;;;;;;8.54;74.14;97374.34;2601145;28;19928;-78
2022/04/06 05:26:00;;;;;;;;;;;;;;;8.56;74.06;97370.78;2603010;28;19931;-78
2022/04/06 05:27:16;;;;;;;;;;;;;;;8.55;74.10;97371.69;2600667;28;20306;-80
2022/04/06 05:28:32;;;;;;;;;;;;;;;8.58;74.07;97370.72;2603269;28;20014;-79
2022/04/06 05:29:47;;;;;;;;;;;;;;;8.60;74.01;97380.19;2603222;28;19924;-77
2022/04/06 05:31:02;;;;;;;;;;;;;;;8.61;73.77;97366.25;2606497;28;19924;-78
2022/04/06 05:32:18;;;;;;;;;;;;;;;8.60;73.90;97371.53;2603962;28;20221;-78
2022/04/06 05:33:34;;;;;;;;;;;;;;;8.57;73.88;97369.00;2602693;28;20019;-78
2022/04/06 05:34:49;;;;;;;;;;;;;;;8.58;73.92;97363.75;2601149;28;20277;-80
2022/04/06 05:36:04;;;;;;;;;;;;;;;8.58;73.91;97374.19;2602466;28;19951;-78
2022/04/06 05:37:20;;;;;;;;;;;;;;;8.59;73.93;97368.06;2600725;28;20031;-77
2022/04/06 05:38:35;;;;;;;;;;;;;;;8.60;73.96;97361.94;2602066;28;19924;-79
2022/04/06 05:39:51;;;;;;;;;;;;;;;8.66;73.58;97370.44;2602315;28;19932;-78
2022/04/06 05:41:07;;;;;;;;;;;;;;;8.67;73.32;97372.16;2604176;28;19947;-79
2022/04/06 05:42:22;;;;;;;;;;;;;;;8.69;73.31;97383.38;2601915;28;19931;-78
2022/04/06 05:43:38;;;;;;;;;;;;;;;8.68;73.42;97373.84;2601948;28;19925;-81
2022/04/06 05:44:53;;;;;;;;;;;;;;;8.71;73.34;97371.13;2602420;28;20383;-76
2022/04/06 05:46:08;;;;;;;;;;;;;;;8.72;73.12;97367.59;2603024;28;19972;-81
2022/04/06 05:47:24;;;;;;;;;;;;;;;8.70;73.41;97362.44;2601751;28;19925;-78
2022/04/06 05:48:49;;;;;;;;;;;;;;;8.70;73.26;97372.03;2602577;28;20454;-80
2022/04/06 05:50:06;;;;;;;;;;;;;;;8.72;73.10;97368.44;2600995;28;20838;-81
2022/04/06 05:51:21;;;;;;;;;;;;;;;8.76;72.67;97372.66;2602310;28;20828;-81
2022/04/06 05:52:37;;;;;;;;;;;;;;;8.78;72.81;97372.56;2602824;28;20031;-80
2022/04/06 05:53:52;;;;;;;;;;;;;;;8.74;72.97;97377.09;2601580;28;20016;-80
2022/04/06 05:55:08;;;;;;;;;;;;;;;8.76;73.16;97369.19;2600825;28;19920;-80
2022/04/06 05:56:23;;;;;;;;;;;;;;;8.79;72.89;97369.06;2602458;28;19921;-80
2022/04/06 05:57:39;;;;;;;;;;;;;;;8.76;73.00;97371.78;2602160;28;19936;-83
2022/04/06 05:58:55;;;;;;;;;;;;;;;8.77;72.90;97370.88;2600556;28;19925;-82
2022/04/06 06:00:10;;;;;;;;;;;;;;;8.82;72.63;97375.94;2600314;28;19928;-84
2022/04/06 06:01:25;;;;;;;;;;;;;;;8.79;72.79;97376.88;2601688;28;20452;-80
2022/04/06 06:02:43;;;;;;;;;;;;;;;8.81;72.75;97372.50;2602357;28;19935;-80
2022/04/06 06:03:58;;;;;;;;;;;;;;;8.81;72.90;97382.06;2602546;28;19966;-79
2022/04/06 06:05:13;;;;;;;;;;;;;;;8.82;72.76;97374.19;2604001;28;19925;-80
2022/04/06 06:06:29;;;;;;;;;;;;;;;8.80;72.73;97368.19;2601817;28;20522;-80
2022/04/06 06:07:44;;;;;;;;;;;;;;;8.85;72.68;97367.97;2602214;28;19931;-80
2022/04/06 06:09:00;;;;;;;;;;;;;;;8.84;72.66;97380.19;2600510;28;19924;-80
2022/04/06 06:10:15;;;;;;;;;;;;;;;8.85;72.81;97383.63;2603060;28;20359;-81
2022/04/06 06:11:30;;;;;;;;;;;;;;;8.87;72.61;97376.59;2603289;28;19924;-84
2022/04/06 06:12:46;;;;;;;;;;;;;;;8.88;72.62;97381.75;2601910;28;19935;-80
2022/04/06 06:14:02;;;;;;;;;;;;;;;8.92;72.62;97373.81;2600516;28;19936;-81
2022/04/06 06:15:17;;;;;;;;;;;;;;;8.97;72.45;97374.50;2600706;28;19955;-80
2022/04/06 06:16:32;;;;;;;;;;;;;;;9.01;72.10;97373.47;2602001;28;19925;-80
2022/04/06 06:17:48;;;;;;;;;;;;;;;9.02;72.08;97368.19;2600103;28;20047;-83
2022/04/06 06:19:04;;;;;;;;;;;;;;;9.04;72.19;97368.97;2602772;28;19932;-81
2022/04/06 06:20:19;;;;;;;;;;;;;;;8.99;72.18;97360.47;2601187;28;19950;-80
2022/04/06 06:21:34;;;;;;;;;;;;;;;9.02;71.96;97367.34;2602325;28;19986;-81
2022/04/06 06:22:50;;;;;;;;;;;;;;;9.04;71.78;97375.94;2601912;28;19925;-81
2022/04/06 06:24:06;;;;;;;;;;;;;;;9.06;72.06;97368.06;2600319;28;20060;-81
2022/04/06 06:25:21;;;;;;;;;;;;;;;9.07;71.80;97367.16;2600885;28;19929;-80
2022/04/06 06:26:37;;;;;;;;;;;;;;;9.10;71.56;97380.09;2601539;28;19925;-80
2022/04/06 06:27:53;;;;;;;;;;;;;;;9.13;71.46;97374.72;2602171;28;19925;-80
2022/04/06 06:29:09;;;;;;;;;;;;;;;9.15;71.13;97376.38;2600664;28;20059;-81
2022/04/06 06:30:27;;;;;;;;;;;;;;;9.18;71.21;97376.25;2600629;28;20007;-81
2022/04/06 06:31:42;;;;;;;;;;;;;;;9.18;71.32;97376.25;2602506;28;19924;-81
2022/04/06 06:32:57;;;;;;;;;;;;;;;9.17;71.06;97379.78;2601900;28;20096;-81
2022/04/06 06:34:13;;;;;;;;;;;;;;;9.18;71.19;97373.66;2602231;28;20796;-83
2022/04/06 06:35:28;;;;;;;;;;;;;;;9.20;71.07;97363.16;2602771;28;20731;-82
2022/04/06 06:36:44;;;;;;;;;;;;;;;9.22;70.93;97373.50;2603684;28;19994;-81
2022/04/06 06:37:59;;;;;;;;;;;;;;;9.22;71.02;97371.78;2603090;28;19982;-80
2022/04/06 06:39:15;;;;;;;;;;;;;;;9.26;71.00;97368.13;2603439;28;20291;-80
2022/04/06 06:40:30;;;;;;;;;;;;;;;9.29;71.20;97368.00;2602723;28;19932;-81
2022/04/06 06:41:46;;;;;;;;;;;;;;;9.33;71.08;97377.41;2600169;28;19932;-80
2022/04/06 06:43:02;;;;;;;;;;;;;;;9.34;70.88;97378.25;2602759;28;19964;-79
2022/04/06 06:44:17;;;;;;;;;;;;;;;9.37;70.68;97375.53;2602557;28;19925;-79